Main page
METAR-TAF:

METAR-TAF

Airports :

Schwäbisch Hall, Germany

latitude: 49-07-06N, longitude: 9-47-02E, elevation: 398 m

Current weather observation

The report was made 19 minutes ago, at 22:50 UTC
Wind 6 kt from the West/Northwest
Temperature -1°C
Humidity 93%
Pressure 1012 hPa
Visibility 10 km or more

METAR: EDTY 252250Z AUTO 29006KT 9999 // FEW008/// BKN010/// OVC039/// M01/M02 Q1012

Time: 00:09 (23:09 UTC)

Forecast

The report was made 6 hours and 9 minutes ago, at 17:00 UTC
Forecast valid from 25 at 18 UTC to 26 at 03 UTC
Wind 5 kt from the West
Visibility: 8000 m
Few clouds at a height of 500 ft
Broken clouds at a height of 700 ft
Probability 40% :
Temporary
from 25 at 18 UTC to 25 at 24 UTC
Visibility: 2000 m
Broken clouds at a height of 400 ft
Scattered clouds at a height of 1000 ft, Towering cumulus.
light snow showers

TAF: EDTY 251700Z 2518/2603 26005KT 8000 FEW005 BKN007 PROB40 TEMPO 2518/2524 2000 -SHSN BKN004 SCT010TCU

Weather observations and forecasts of more than 4000 airports (METAR and TAF reports).

The available stations are represented by yellow and red dots on the map.

Hover mouse over dot to see the name of the station.

Then click to see weather observations and forecasts.

To change the map : click on the green buttons with a black cross to zoom in, on the green button with a dash to zoom out, or on the green arrows for adjacent maps.


METAR-TAF: